Time;durP1;ratioP1;P1;durP2;ratioP2;P2;SDS_P1;SDS_P2;PMS_P1;PMS_P2;Temp;Humidity;BMP_temperature;BMP_pressure;BME280_temperature;BME280_humidity;BME280_pressure;Samples;Min_cycle;Max_cycle;Signal;HPM_P1;HPM_P2
2022/08/23 00:01:44;;;;;;;;;;;;;;;;;;5072932;28;20325;-76
2022/08/23 00:04:10;;;;;;;;;;;;;;;;;;5054599;28;20418;-76
2022/08/23 00:06:36;;;;;;;;;;;;;;;;;;5055631;28;20021;-76
2022/08/23 00:09:01;;;;;;;;;;;;;;;;;;5041534;28;19923;-76
2022/08/23 00:11:34;;;;;;;;;;;;;;;;;;5076562;28;19916;-77
2022/08/23 00:14:01;;;;;;;;;;;;;;;;;;5058358;28;20275;-76
2022/08/23 00:16:27;;;;;;;;;;;;;;;;;;5058524;28;20302;-78
2022/08/23 00:18:52;;;;;;;;;;;;;;;;;;5057843;28;19917;-78
2022/08/23 00:21:18;;;;;;;;;;;;;;;;;;5075713;28;19942;-78
2022/08/23 00:23:43;;;;;;;;;;;;;;;;;;5075817;28;20017;-78
2022/08/23 00:26:08;;;;;;;;;;;;;;;;;;5057615;28;19920;-77
2022/08/23 00:28:33;;;;;;;;;;;;;;;;;;5057972;28;19965;-78
2022/08/23 00:30:59;;;;;;;;;;;;;;;;;;5057831;28;19919;-78
2022/08/23 00:33:24;;;;;;;;;;;;;;;;;;5075832;28;20284;-76
2022/08/23 00:35:49;;;;;;;;;;;;;;;;;;5057693;28;19993;-76
2022/08/23 00:38:15;;;;;;;;;;;;;;;;;;5075880;28;19916;-76
2022/08/23 00:40:44;;;;;;;;;;;;;;;;;;5057716;28;20027;-76
2022/08/23 00:48:57;;;;;;;;;;;;;;;;;;5076053;28;19924;-76
2022/08/23 00:51:25;;;;;;;;;;;;;;;;;;5095611;28;19921;-76
2022/08/23 00:53:51;;;;;;;;;;;;;;;;;;5078088;28;19916;-79
2022/08/23 00:56:17;;;;;;;;;;;;;;;;;;5077667;28;19944;-78
2022/08/23 00:58:44;;;;;;;;;;;;;;;;;;5060960;28;20405;-78
2022/08/23 01:01:10;;;;;;;;;;;;;;;;;;5077859;28;20371;-78
2022/08/23 01:03:36;;;;;;;;;;;;;;;;;;5060482;28;19912;-78
2022/08/23 01:06:03;;;;;;;;;;;;;;;;;;5060516;28;19912;-78
2022/08/23 01:08:29;;;;;;;;;;;;;;;;;;5077118;28;19918;-78
2022/08/23 01:10:59;;;;;;;;;;;;;;;;;;5077070;28;19920;-78
2022/08/23 01:13:44;;;;;;;;;;;;;;;;;;5077058;28;19926;-78
2022/08/23 01:16:17;;;;;;;;;;;;;;;;;;5060323;28;19923;-78
2022/08/23 01:18:43;;;;;;;;;;;;;;;;;;5076738;28;19918;-78
2022/08/23 01:21:28;;;;;;;;;;;;;;;;;;5077054;28;19920;-78
2022/08/23 01:23:55;;;;;;;;;;;;;;;;;;5080975;28;19918;-77
2022/08/23 01:26:21;;;;;;;;;;;;;;;;;;5076912;28;19916;-77
2022/08/23 01:28:47;;;;;;;;;;;;;;;;;;5060058;28;19931;-77
2022/08/23 01:31:13;;;;;;;;;;;;;;;;;;5076832;28;20286;-78
2022/08/23 01:33:38;;;;;;;;;;;;;;;;;;5076789;28;20321;-77
2022/08/23 01:36:07;;;;;;;;;;;;;;;;;;5094846;28;19916;-77
2022/08/23 01:38:32;;;;;;;;;;;;;;;;;;5077114;28;19912;-78
2022/08/23 01:40:58;;;;;;;;;;;;;;;;;;5076840;28;19912;-77
2022/08/23 01:43:24;;;;;;;;;;;;;;;;;;5076364;28;20328;-77
2022/08/23 01:45:49;;;;;;;;;;;;;;;;;;5094637;28;19924;-78
2022/08/23 01:48:15;;;;;;;;;;;;;;;;;;5077253;28;19920;-77
2022/08/23 01:50:40;;;;;;;;;;;;;;;;;;5094455;28;19924;-77
2022/08/23 01:53:06;;;;;;;;;;;;;;;;;;5094636;28;19919;-77
2022/08/23 01:55:31;;;;;;;;;;;;;;;;;;5076694;28;19962;-77
2022/08/23 01:57:57;;;;;;;;;;;;;;;;;;5076265;28;19912;-77
2022/08/23 02:00:24;;;;;;;;;;;;;;;;;;5094597;28;19916;-77
2022/08/23 02:02:50;;;;;;;;;;;;;;;;;;5076413;28;19919;-77
2022/08/23 02:05:15;;;;;;;;;;;;;;;;;;5094533;28;20367;-77
2022/08/23 02:07:40;;;;;;;;;;;;;;;;;;5094158;28;19916;-77
2022/08/23 02:10:06;;;;;;;;;;;;;;;;;;5094120;28;19920;-77
2022/08/23 02:12:32;;;;;;;;;;;;;;;;;;5076315;28;20453;-76
2022/08/23 02:14:57;;;;;;;;;;;;;;;;;;5059362;28;19920;-76
2022/08/23 02:17:22;;;;;;;;;;;;;;;;;;5075790;28;19962;-77
2022/08/23 02:19:48;;;;;;;;;;;;;;;;;;5076127;28;19916;-78
2022/08/23 02:22:13;;;;;;;;;;;;;;;;;;5075725;28;19916;-77
2022/08/23 02:24:40;;;;;;;;;;;;;;;;;;5094382;28;19916;-77
2022/08/23 02:27:05;;;;;;;;;;;;;;;;;;5075675;28;19947;-77
2022/08/23 02:29:31;;;;;;;;;;;;;;;;;;5074790;28;19966;-77
2022/08/23 02:31:57;;;;;;;;;;;;;;;;;;5058973;28;19916;-77
2022/08/23 02:34:22;;;;;;;;;;;;;;;;;;5075785;28;19912;-77
2022/08/23 02:36:48;;;;;;;;;;;;;;;;;;5075755;28;19919;-77
2022/08/23 02:39:14;;;;;;;;;;;;;;;;;;5076100;28;19912;-77
2022/08/23 02:41:40;;;;;;;;;;;;;;;;;;5075504;28;19912;-75
2022/08/23 02:44:05;;;;;;;;;;;;;;;;;;5093937;28;19920;-77
2022/08/23 02:46:30;;;;;;;;;;;;;;;;;;5058826;28;19960;-77
2022/08/23 02:48:56;;;;;;;;;;;;;;;;;;5093414;28;19920;-77
2022/08/23 02:51:21;;;;;;;;;;;;;;;;;;5075292;28;19920;-77
2022/08/23 02:53:47;;;;;;;;;;;;;;;;;;5075766;28;20014;-77
2022/08/23 02:56:12;;;;;;;;;;;;;;;;;;5093489;28;19916;-76
2022/08/23 02:58:38;;;;;;;;;;;;;;;;;;5058554;28;19912;-77
2022/08/23 03:01:03;;;;;;;;;;;;;;;;;;5075582;28;19912;-76
2022/08/23 03:03:28;;;;;;;;;;;;;;;;;;5093566;28;20014;-77
2022/08/23 03:05:54;;;;;;;;;;;;;;;;;;5058307;28;19919;-77
2022/08/23 03:08:21;;;;;;;;;;;;;;;;;;5093074;28;19920;-77
2022/08/23 03:10:47;;;;;;;;;;;;;;;;;;5058212;28;20048;-77
2022/08/23 03:13:12;;;;;;;;;;;;;;;;;;5075361;28;19912;-77
2022/08/23 03:15:38;;;;;;;;;;;;;;;;;;5092070;28;19916;-77
2022/08/23 03:18:03;;;;;;;;;;;;;;;;;;5075490;28;19916;-77
2022/08/23 03:20:28;;;;;;;;;;;;;;;;;;5058169;28;19912;-77
2022/08/23 03:22:54;;;;;;;;;;;;;;;;;;5093193;28;19928;-77
2022/08/23 03:25:20;;;;;;;;;;;;;;;;;;5075416;28;20002;-78
2022/08/23 03:27:45;;;;;;;;;;;;;;;;;;5093608;28;19916;-77
2022/08/23 03:30:11;;;;;;;;;;;;;;;;;;5075167;28;20339;-78
2022/08/23 03:32:36;;;;;;;;;;;;;;;;;;5074936;28;20383;-77
2022/08/23 03:35:01;;;;;;;;;;;;;;;;;;5074782;28;20023;-77
2022/08/23 03:37:27;;;;;;;;;;;;;;;;;;5075019;28;19948;-78
2022/08/23 03:39:52;;;;;;;;;;;;;;;;;;5075611;28;20317;-77
2022/08/23 03:42:18;;;;;;;;;;;;;;;;;;5096999;28;19916;-77
2022/08/23 03:44:43;;;;;;;;;;;;;;;;;;5097452;28;20025;-77
2022/08/23 03:47:08;;;;;;;;;;;;;;;;;;5096832;28;19912;-77
2022/08/23 03:49:34;;;;;;;;;;;;;;;;;;5097079;28;19924;-77
2022/08/23 03:51:59;;;;;;;;;;;;;;;;;;5078744;28;20510;-77
2022/08/23 03:54:25;;;;;;;;;;;;;;;;;;5095313;28;19916;-77
2022/08/23 03:57:01;;;;;;;;;;;;;;;;;;5078791;28;20036;-77
2022/08/23 03:59:27;;;;;;;;;;;;;;;;;;5096644;28;19920;-77
2022/08/23 04:01:52;;;;;;;;;;;;;;;;;;5078644;28;20351;-77
2022/08/23 04:04:18;;;;;;;;;;;;;;;;;;5096831;28;19916;-77
2022/08/23 04:06:46;;;;;;;;;;;;;;;;;;5061619;28;19912;-77
2022/08/23 04:09:12;;;;;;;;;;;;;;;;;;5078736;28;19931;-77
2022/08/23 04:11:38;;;;;;;;;;;;;;;;;;5061565;28;19912;-77
2022/08/23 04:14:03;;;;;;;;;;;;;;;;;;5095008;28;19926;-76
2022/08/23 04:16:32;;;;;;;;;;;;;;;;;;5097239;28;19912;-79
2022/08/23 04:18:57;;;;;;;;;;;;;;;;;;5096340;28;19916;-79
2022/08/23 04:21:22;;;;;;;;;;;;;;;;;;5096278;28;20259;-78
2022/08/23 04:23:48;;;;;;;;;;;;;;;;;;5078048;28;20002;-78
2022/08/23 04:26:13;;;;;;;;;;;;;;;;;;5094688;28;19944;-77
2022/08/23 04:28:38;;;;;;;;;;;;;;;;;;5096149;28;19924;-77
2022/08/23 04:31:04;;;;;;;;;;;;;;;;;;5078245;28;19969;-77
2022/08/23 04:33:31;;;;;;;;;;;;;;;;;;5061779;28;20429;-77
2022/08/23 04:35:56;;;;;;;;;;;;;;;;;;5079054;28;19912;-77
2022/08/23 04:38:22;;;;;;;;;;;;;;;;;;5078394;28;19916;-77
2022/08/23 04:43:31;;;;;;;;;;;;;;;;;;5096649;28;19926;-77
2022/08/23 04:45:56;;;;;;;;;;;;;;;;;;5096557;28;19917;-77
2022/08/23 04:48:22;;;;;;;;;;;;;;;;;;5078292;28;19923;-78
2022/08/23 04:50:47;;;;;;;;;;;;;;;;;;5061662;28;19921;-77
2022/08/23 04:53:13;;;;;;;;;;;;;;;;;;5096059;28;19916;-77
2022/08/23 04:55:38;;;;;;;;;;;;;;;;;;5078244;28;19922;-76
2022/08/23 04:58:04;;;;;;;;;;;;;;;;;;5078229;28;19912;-78
2022/08/23 05:00:29;;;;;;;;;;;;;;;;;;5061591;28;19912;-76
2022/08/23 05:02:55;;;;;;;;;;;;;;;;;;5096802;28;19916;-75
2022/08/23 05:05:20;;;;;;;;;;;;;;;;;;5096790;28;19965;-78
2022/08/23 05:07:45;;;;;;;;;;;;;;;;;;5078262;28;19919;-78
2022/08/23 05:10:11;;;;;;;;;;;;;;;;;;5079230;28;19916;-77
2022/08/23 05:12:37;;;;;;;;;;;;;;;;;;5078233;28;19916;-77
2022/08/23 05:15:02;;;;;;;;;;;;;;;;;;5096490;28;20309;-77
2022/08/23 05:17:28;;;;;;;;;;;;;;;;;;5079306;28;19927;-76
2022/08/23 05:19:53;;;;;;;;;;;;;;;;;;5094939;28;19920;-76
2022/08/23 05:22:18;;;;;;;;;;;;;;;;;;5078552;28;19962;-76
2022/08/23 05:24:43;;;;;;;;;;;;;;;;;;5096726;28;19919;-78
2022/08/23 05:27:09;;;;;;;;;;;;;;;;;;5096433;28;19920;-76
2022/08/23 05:29:34;;;;;;;;;;;;;;;;;;5079578;28;20398;-75
2022/08/23 05:31:59;;;;;;;;;;;;;;;;;;5078883;28;20378;-76
2022/08/23 05:34:25;;;;;;;;;;;;;;;;;;5096469;28;20410;-78
2022/08/23 05:36:51;;;;;;;;;;;;;;;;;;5077903;28;19945;-76
2022/08/23 05:39:16;;;;;;;;;;;;;;;;;;5078718;28;19918;-76
2022/08/23 05:41:42;;;;;;;;;;;;;;;;;;5060877;28;20375;-76
2022/08/23 05:44:09;;;;;;;;;;;;;;;;;;5077584;28;19941;-76
2022/08/23 05:46:34;;;;;;;;;;;;;;;;;;5060740;28;19969;-76
2022/08/23 05:48:59;;;;;;;;;;;;;;;;;;5077379;28;20328;-75
2022/08/23 05:51:27;;;;;;;;;;;;;;;;;;5077509;28;19912;-75
2022/08/23 05:53:52;;;;;;;;;;;;;;;;;;5060402;28;19912;-76
2022/08/23 05:56:18;;;;;;;;;;;;;;;;;;5095640;28;19918;-76
2022/08/23 05:58:43;;;;;;;;;;;;;;;;;;5095702;28;19916;-76
2022/08/23 06:01:09;;;;;;;;;;;;;;;;;;5077024;28;19912;-78
2022/08/23 06:03:34;;;;;;;;;;;;;;;;;;5077306;28;19912;-78
2022/08/23 06:06:00;;;;;;;;;;;;;;;;;;5077287;28;19916;-78
2022/08/23 06:08:25;;;;;;;;;;;;;;;;;;5079575;28;19912;-78
2022/08/23 06:11:05;;;;;;;;;;;;;;;;;;5079128;28;19916;-77
2022/08/23 06:13:30;;;;;;;;;;;;;;;;;;5079265;28;19920;-77
2022/08/23 06:15:56;;;;;;;;;;;;;;;;;;5096788;28;19916;-77
2022/08/23 06:18:21;;;;;;;;;;;;;;;;;;5061339;28;19923;-78
2022/08/23 06:20:47;;;;;;;;;;;;;;;;;;5061523;28;19916;-75
2022/08/23 06:23:12;;;;;;;;;;;;;;;;;;5061461;28;19912;-79
2022/08/23 06:25:38;;;;;;;;;;;;;;;;;;5094962;28;19920;-77
2022/08/23 06:28:03;;;;;;;;;;;;;;;;;;5076855;28;19912;-77
2022/08/23 06:30:28;;;;;;;;;;;;;;;;;;5093174;28;19961;-77
2022/08/23 06:32:53;;;;;;;;;;;;;;;;;;5095195;28;19917;-77
2022/08/23 06:35:19;;;;;;;;;;;;;;;;;;5094219;28;20277;-76
2022/08/23 06:37:44;;;;;;;;;;;;;;;;;;5096213;28;19916;-78
2022/08/23 06:40:09;;;;;;;;;;;;;;;;;;5096083;28;19920;-77
2022/08/23 06:42:35;;;;;;;;;;;;;;;;;;5096761;28;20335;-77
2022/08/23 06:45:00;;;;;;;;;;;;;;;;;;5077599;28;20421;-77
2022/08/23 06:47:26;;;;;;;;;;;;;;;;;;5094421;28;19923;-77
2022/08/23 06:49:51;;;;;;;;;;;;;;;;;;5069376;28;20386;-76
2022/08/23 06:52:17;;;;;;;;;;;;;;;;;;5077507;28;19917;-77
2022/08/23 06:54:43;;;;;;;;;;;;;;;;;;5078659;28;19951;-76
2022/08/23 06:57:08;;;;;;;;;;;;;;;;;;5077677;28;19965;-77
2022/08/23 06:59:33;;;;;;;;;;;;;;;;;;5080365;28;20371;-77
2022/08/23 07:02:00;;;;;;;;;;;;;;;;;;5059767;28;19913;-78
2022/08/23 07:04:26;;;;;;;;;;;;;;;;;;5041183;28;19912;-78
2022/08/23 07:06:52;;;;;;;;;;;;;;;;;;5058596;28;19958;-78
2022/08/23 07:09:17;;;;;;;;;;;;;;;;;;5057107;28;19921;-77
2022/08/23 07:11:43;;;;;;;;;;;;;;;;;;5058630;28;19960;-77
2022/08/23 07:14:09;;;;;;;;;;;;;;;;;;5075976;28;20355;-77
2022/08/23 07:16:36;;;;;;;;;;;;;;;;;;5046621;28;19923;-78
2022/08/23 07:19:02;;;;;;;;;;;;;;;;;;5064384;28;19912;-79
2022/08/23 07:21:28;;;;;;;;;;;;;;;;;;5048048;28;19912;-77
2022/08/23 07:23:54;;;;;;;;;;;;;;;;;;5063511;28;19935;-77
2022/08/23 07:26:20;;;;;;;;;;;;;;;;;;5079248;28;19916;-77
2022/08/23 07:28:46;;;;;;;;;;;;;;;;;;5045725;28;19978;-77
2022/08/23 07:31:14;;;;;;;;;;;;;;;;;;5045963;28;19912;-77
2022/08/23 07:33:40;;;;;;;;;;;;;;;;;;5062279;28;20062;-77
2022/08/23 07:36:05;;;;;;;;;;;;;;;;;;5045744;28;19970;-77
2022/08/23 07:38:31;;;;;;;;;;;;;;;;;;5062453;28;19920;-77
2022/08/23 07:40:57;;;;;;;;;;;;;;;;;;5062331;28;19913;-77
2022/08/23 07:43:22;;;;;;;;;;;;;;;;;;5062184;28;20359;-77
2022/08/23 07:45:48;;;;;;;;;;;;;;;;;;5080556;28;19920;-77
2022/08/23 07:48:13;;;;;;;;;;;;;;;;;;5062013;28;19942;-76
2022/08/23 07:50:39;;;;;;;;;;;;;;;;;;5046395;28;20275;-76
2022/08/23 07:53:05;;;;;;;;;;;;;;;;;;5062341;28;20394;-76
2022/08/23 07:55:30;;;;;;;;;;;;;;;;;;5045372;28;19920;-77
2022/08/23 07:57:56;;;;;;;;;;;;;;;;;;5080048;28;19916;-80
2022/08/23 08:00:23;;;;;;;;;;;;;;;;;;5062011;28;20460;-76
2022/08/23 08:02:48;;;;;;;;;;;;;;;;;;5080527;28;19917;-78
2022/08/23 08:05:13;;;;;;;;;;;;;;;;;;5045665;28;19959;-78
2022/08/23 08:07:39;;;;;;;;;;;;;;;;;;5080248;28;20436;-75
2022/08/23 08:10:04;;;;;;;;;;;;;;;;;;5061890;28;19964;-77
2022/08/23 08:12:31;;;;;;;;;;;;;;;;;;5079942;28;19967;-76
2022/08/23 08:14:56;;;;;;;;;;;;;;;;;;5079780;28;19921;-75
2022/08/23 08:17:22;;;;;;;;;;;;;;;;;;5061891;28;20007;-78
2022/08/23 08:19:47;;;;;;;;;;;;;;;;;;5045141;28;19917;-76
2022/08/23 08:22:12;;;;;;;;;;;;;;;;;;5079761;28;19924;-76
2022/08/23 08:24:38;;;;;;;;;;;;;;;;;;5061853;28;19913;-76
2022/08/23 08:27:03;;;;;;;;;;;;;;;;;;5059420;28;20464;-76
2022/08/23 08:29:28;;;;;;;;;;;;;;;;;;5041926;28;19965;-76
2022/08/23 08:31:54;;;;;;;;;;;;;;;;;;5076533;28;19917;-76
2022/08/23 08:34:19;;;;;;;;;;;;;;;;;;5059041;28;19917;-76
2022/08/23 08:36:48;;;;;;;;;;;;;;;;;;5077058;28;20278;-76
2022/08/23 08:39:18;;;;;;;;;;;;;;;;;;5058809;28;19916;-76
2022/08/23 08:41:47;;;;;;;;;;;;;;;;;;5058933;28;19948;-75
2022/08/23 08:44:18;;;;;;;;;;;;;;;;;;5058636;28;19921;-76
2022/08/23 08:46:47;;;;;;;;;;;;;;;;;;5076499;28;20279;-76
2022/08/23 08:49:15;;;;;;;;;;;;;;;;;;5058021;28;20015;-75
2022/08/23 08:51:43;;;;;;;;;;;;;;;;;;5058200;28;19924;-76
2022/08/23 08:54:09;;;;;;;;;;;;;;;;;;5058818;28;20393;-76
2022/08/23 08:56:36;;;;;;;;;;;;;;;;;;5058366;28;19912;-76
2022/08/23 08:59:03;;;;;;;;;;;;;;;;;;5058476;28;20333;-76
2022/08/23 09:01:28;;;;;;;;;;;;;;;;;;5058163;28;19913;-78
2022/08/23 09:03:54;;;;;;;;;;;;;;;;;;5058435;28;19939;-78
2022/08/23 09:06:25;;;;;;;;;;;;;;;;;;5058174;28;19912;-78
2022/08/23 09:09:08;;;;;;;;;;;;;;;;;;5076025;28;19927;-78
2022/08/23 09:12:09;;;;;;;;;;;;;;;;;;5057889;28;19912;-78
2022/08/23 09:14:41;;;;;;;;;;;;;;;;;;5015142;28;19917;-77
2022/08/23 09:17:25;;;;;;;;;;;;;;;;;;5045257;28;19966;-78
2022/08/23 09:19:51;;;;;;;;;;;;;;;;;;5076240;28;19916;-78
2022/08/23 09:22:19;;;;;;;;;;;;;;;;;;5041502;28;19936;-75
2022/08/23 09:24:44;;;;;;;;;;;;;;;;;;5057801;28;19912;-77
2022/08/23 09:27:10;;;;;;;;;;;;;;;;;;5057541;28;19927;-77
2022/08/23 09:29:36;;;;;;;;;;;;;;;;;;5041980;28;19923;-78
2022/08/23 09:32:04;;;;;;;;;;;;;;;;;;5058000;28;19912;-76
2022/08/23 09:34:36;;;;;;;;;;;;;;;;;;5041073;28;20439;-79
2022/08/23 09:37:08;;;;;;;;;;;;;;;;;;5057426;28;20042;-78
2022/08/23 09:39:34;;;;;;;;;;;;;;;;;;5075017;28;19912;-79
2022/08/23 09:42:00;;;;;;;;;;;;;;;;;;5040674;28;20031;-78
2022/08/23 09:44:35;;;;;;;;;;;;;;;;;;5075475;28;20049;-78
2022/08/23 09:47:05;;;;;;;;;;;;;;;;;;5040750;28;19927;-79
2022/08/23 09:49:31;;;;;;;;;;;;;;;;;;5057559;28;19951;-79
2022/08/23 09:52:00;;;;;;;;;;;;;;;;;;5040690;28;20287;-78
2022/08/23 09:54:28;;;;;;;;;;;;;;;;;;5057435;28;20359;-78
2022/08/23 09:56:56;;;;;;;;;;;;;;;;;;5057124;28;19919;-78
2022/08/23 09:59:24;;;;;;;;;;;;;;;;;;5041269;28;20367;-77
2022/08/23 10:01:50;;;;;;;;;;;;;;;;;;5074832;28;20001;-77
2022/08/23 10:04:21;;;;;;;;;;;;;;;;;;5057412;28;20358;-77
2022/08/23 10:06:47;;;;;;;;;;;;;;;;;;5057404;28;20283;-78
2022/08/23 10:09:23;;;;;;;;;;;;;;;;;;5056926;28;19920;-78
2022/08/23 10:11:49;;;;;;;;;;;;;;;;;;5057527;28;20383;-78
2022/08/23 10:14:16;;;;;;;;;;;;;;;;;;5040025;28;19938;-79
2022/08/23 10:16:53;;;;;;;;;;;;;;;;;;5057421;28;19916;-78
2022/08/23 10:19:29;;;;;;;;;;;;;;;;;;5074450;28;19912;-78
2022/08/23 10:22:13;;;;;;;;;;;;;;;;;;5039889;28;19912;-78
2022/08/23 10:24:41;;;;;;;;;;;;;;;;;;5056720;28;19966;-77
2022/08/23 10:30:05;;;;;;;;;;;;;;;;;;5074228;28;19923;-78
2022/08/23 10:32:43;;;;;;;;;;;;;;;;;;5056617;28;20374;-78
2022/08/23 10:35:19;;;;;;;;;;;;;;;;;;5074226;28;19919;-78
2022/08/23 10:37:51;;;;;;;;;;;;;;;;;;5040000;28;19982;-78
2022/08/23 10:40:24;;;;;;;;;;;;;;;;;;5039556;28;19962;-78
2022/08/23 10:42:53;;;;;;;;;;;;;;;;;;5074402;28;20007;-78
2022/08/23 10:45:30;;;;;;;;;;;;;;;;;;5056431;28;19928;-78
2022/08/23 10:48:08;;;;;;;;;;;;;;;;;;5039785;28;19918;-78
2022/08/23 10:50:53;;;;;;;;;;;;;;;;;;5064575;28;19963;-77
2022/08/23 10:53:20;;;;;;;;;;;;;;;;;;5077148;28;19912;-78
2022/08/23 10:56:01;;;;;;;;;;;;;;;;;;5077258;28;19912;-77
2022/08/23 10:58:27;;;;;;;;;;;;;;;;;;5095022;28;20382;-77
2022/08/23 11:00:52;;;;;;;;;;;;;;;;;;5077072;28;19931;-78
2022/08/23 11:03:50;;;;;;;;;;;;;;;;;;5077606;28;19916;-77
2022/08/23 11:06:22;;;;;;;;;;;;;;;;;;5061340;28;19918;-78
2022/08/23 11:08:47;;;;;;;;;;;;;;;;;;5076241;28;19912;-77
2022/08/23 11:11:31;;;;;;;;;;;;;;;;;;5059502;28;19919;-77
2022/08/23 11:13:57;;;;;;;;;;;;;;;;;;5075936;28;20256;-77
2022/08/23 11:16:24;;;;;;;;;;;;;;;;;;5077746;28;19923;-77
2022/08/23 11:18:49;;;;;;;;;;;;;;;;;;5076190;28;20359;-77
2022/08/23 11:21:18;;;;;;;;;;;;;;;;;;5076066;28;19923;-77
2022/08/23 11:23:43;;;;;;;;;;;;;;;;;;5094451;28;19962;-75
2022/08/23 11:26:10;;;;;;;;;;;;;;;;;;5075889;28;20324;-77
2022/08/23 11:28:40;;;;;;;;;;;;;;;;;;5076110;28;19912;-78
2022/08/23 11:31:22;;;;;;;;;;;;;;;;;;5059180;28;20278;-78
2022/08/23 11:33:52;;;;;;;;;;;;;;;;;;5059636;28;20297;-79
2022/08/23 11:36:20;;;;;;;;;;;;;;;;;;5060626;28;19919;-79
2022/08/23 11:38:45;;;;;;;;;;;;;;;;;;5077239;28;19912;-79
2022/08/23 11:41:13;;;;;;;;;;;;;;;;;;5076643;28;19919;-78
2022/08/23 11:43:40;;;;;;;;;;;;;;;;;;5095424;28;19971;-78
2022/08/23 11:46:30;;;;;;;;;;;;;;;;;;5076949;28;19912;-78
2022/08/23 11:49:01;;;;;;;;;;;;;;;;;;5093420;28;19956;-78
2022/08/23 11:51:32;;;;;;;;;;;;;;;;;;5073871;28;19912;-78
2022/08/23 11:54:03;;;;;;;;;;;;;;;;;;5074671;28;19913;-78
2022/08/23 11:56:32;;;;;;;;;;;;;;;;;;5055752;28;19919;-77
2022/08/23 11:59:15;;;;;;;;;;;;;;;;;;5056118;28;19912;-79
2022/08/23 12:01:40;;;;;;;;;;;;;;;;;;5074295;28;19917;-79
2022/08/23 12:04:26;;;;;;;;;;;;;;;;;;5077395;28;19916;-79
2022/08/23 12:06:56;;;;;;;;;;;;;;;;;;5058112;28;20003;-79
2022/08/23 12:09:21;;;;;;;;;;;;;;;;;;5059590;28;19916;-79
2022/08/23 12:11:55;;;;;;;;;;;;;;;;;;5058957;28;19916;-79
2022/08/23 12:14:30;;;;;;;;;;;;;;;;;;5077094;28;20263;-79
2022/08/23 12:16:59;;;;;;;;;;;;;;;;;;5077344;28;19919;-79
2022/08/23 12:19:30;;;;;;;;;;;;;;;;;;5058835;28;19916;-78
2022/08/23 12:21:55;;;;;;;;;;;;;;;;;;5058052;28;20346;-79
2022/08/23 12:24:22;;;;;;;;;;;;;;;;;;5058763;28;19956;-79
2022/08/23 12:26:50;;;;;;;;;;;;;;;;;;5042001;28;20424;-79
2022/08/23 12:29:35;;;;;;;;;;;;;;;;;;5041872;28;20003;-79
2022/08/23 12:32:03;;;;;;;;;;;;;;;;;;5076706;28;19916;-79
2022/08/23 12:34:34;;;;;;;;;;;;;;;;;;5078718;28;19961;-78
2022/08/23 12:37:10;;;;;;;;;;;;;;;;;;5080135;28;19984;-79
2022/08/23 12:39:38;;;;;;;;;;;;;;;;;;5079355;28;20282;-79
2022/08/23 12:42:03;;;;;;;;;;;;;;;;;;5060875;28;19927;-78
2022/08/23 12:44:29;;;;;;;;;;;;;;;;;;5060493;28;19920;-80
2022/08/23 12:46:54;;;;;;;;;;;;;;;;;;5043964;28;20291;-79
2022/08/23 12:49:26;;;;;;;;;;;;;;;;;;5062589;28;19952;-80
2022/08/23 12:51:52;;;;;;;;;;;;;;;;;;5099223;28;19916;-80
2022/08/23 12:54:19;;;;;;;;;;;;;;;;;;5063977;28;19912;-80
2022/08/23 12:56:49;;;;;;;;;;;;;;;;;;5079098;28;20259;-80
2022/08/23 12:59:27;;;;;;;;;;;;;;;;;;5062911;28;19912;-80
2022/08/23 13:01:52;;;;;;;;;;;;;;;;;;5097391;28;20359;-78
2022/08/23 13:04:25;;;;;;;;;;;;;;;;;;5061568;28;19916;-79
2022/08/23 13:06:54;;;;;;;;;;;;;;;;;;5078390;28;19916;-82
2022/08/23 13:09:23;;;;;;;;;;;;;;;;;;5078160;28;19920;-79
2022/08/23 13:11:49;;;;;;;;;;;;;;;;;;5078398;28;19965;-81
2022/08/23 13:14:41;;;;;;;;;;;;;;;;;;5093884;28;19920;-81
2022/08/23 13:17:35;;;;;;;;;;;;;;;;;;5091887;28;19919;-80
2022/08/23 13:20:00;;;;;;;;;;;;;;;;;;5094335;28;19916;-80
2022/08/23 13:22:26;;;;;;;;;;;;;;;;;;5089207;28;19916;-79
2022/08/23 13:25:21;;;;;;;;;;;;;;;;;;5080886;28;19912;-80
2022/08/23 13:27:46;;;;;;;;;;;;;;;;;;5074223;28;19916;-80
2022/08/23 13:30:11;;;;;;;;;;;;;;;;;;5092519;28;19923;-79
2022/08/23 13:32:39;;;;;;;;;;;;;;;;;;5087006;28;19920;-78
2022/08/23 13:35:24;;;;;;;;;;;;;;;;;;5087001;28;20378;-78
2022/08/23 13:37:49;;;;;;;;;;;;;;;;;;5091496;28;19973;-78
2022/08/23 13:40:22;;;;;;;;;;;;;;;;;;5092106;28;20282;-78
2022/08/23 13:43:01;;;;;;;;;;;;;;;;;;5093521;28;19912;-78
2022/08/23 13:45:28;;;;;;;;;;;;;;;;;;5075346;28;19924;-78
2022/08/23 13:47:54;;;;;;;;;;;;;;;;;;5074968;28;19964;-78
2022/08/23 13:50:25;;;;;;;;;;;;;;;;;;5070924;28;19991;-79
2022/08/23 13:52:50;;;;;;;;;;;;;;;;;;5051225;28;19928;-80
2022/08/23 13:55:16;;;;;;;;;;;;;;;;;;5073734;28;19912;-79
2022/08/23 13:57:41;;;;;;;;;;;;;;;;;;5074718;28;19919;-79
2022/08/23 14:00:09;;;;;;;;;;;;;;;;;;5075214;28;19922;-79
2022/08/23 14:02:35;;;;;;;;;;;;;;;;;;5075006;28;19935;-79
2022/08/23 14:05:00;;;;;;;;;;;;;;;;;;5091627;28;20382;-77
2022/08/23 14:07:26;;;;;;;;;;;;;;;;;;5091496;28;19916;-79
2022/08/23 14:09:51;;;;;;;;;;;;;;;;;;5073624;28;20014;-79
2022/08/23 14:12:17;;;;;;;;;;;;;;;;;;5092055;28;19916;-79
2022/08/23 14:14:42;;;;;;;;;;;;;;;;;;5056495;28;20030;-79
2022/08/23 14:17:08;;;;;;;;;;;;;;;;;;5073812;28;19918;-79
2022/08/23 14:19:34;;;;;;;;;;;;;;;;;;5073508;28;19912;-79
2022/08/23 14:21:59;;;;;;;;;;;;;;;;;;5074367;28;19924;-78
2022/08/23 14:24:25;;;;;;;;;;;;;;;;;;5073235;28;19912;-79
2022/08/23 14:26:50;;;;;;;;;;;;;;;;;;5072275;28;20015;-79
2022/08/23 14:29:15;;;;;;;;;;;;;;;;;;5088223;28;19920;-79
2022/08/23 14:31:41;;;;;;;;;;;;;;;;;;5074659;28;19931;-79
2022/08/23 14:34:06;;;;;;;;;;;;;;;;;;5092465;28;20318;-79
2022/08/23 14:36:31;;;;;;;;;;;;;;;;;;5070491;28;19912;-79
2022/08/23 14:38:57;;;;;;;;;;;;;;;;;;5089594;28;19923;-79
2022/08/23 14:41:22;;;;;;;;;;;;;;;;;;5094286;28;19917;-79
2022/08/23 14:43:48;;;;;;;;;;;;;;;;;;5076050;28;20345;-78
2022/08/23 14:46:13;;;;;;;;;;;;;;;;;;5074978;28;19954;-81
2022/08/23 14:48:38;;;;;;;;;;;;;;;;;;5056831;28;19912;-79
2022/08/23 14:51:04;;;;;;;;;;;;;;;;;;5072892;28;19920;-80
2022/08/23 14:53:30;;;;;;;;;;;;;;;;;;5056314;28;19926;-81
2022/08/23 14:55:55;;;;;;;;;;;;;;;;;;5073333;28;20402;-81
2022/08/23 14:58:22;;;;;;;;;;;;;;;;;;5056909;28;19966;-80
2022/08/23 15:00:47;;;;;;;;;;;;;;;;;;5055842;28;19958;-80
2022/08/23 15:03:23;;;;;;;;;;;;;;;;;;5055097;28;19916;-81
2022/08/23 15:05:48;;;;;;;;;;;;;;;;;;5051746;28;19955;-81
2022/08/23 15:08:13;;;;;;;;;;;;;;;;;;5057729;28;19912;-81
2022/08/23 15:10:39;;;;;;;;;;;;;;;;;;5057969;28;19956;-79
2022/08/23 15:13:05;;;;;;;;;;;;;;;;;;5055106;28;20343;-79
2022/08/23 15:15:30;;;;;;;;;;;;;;;;;;5067650;28;19919;-79
2022/08/23 15:17:57;;;;;;;;;;;;;;;;;;5074505;28;19961;-78
2022/08/23 15:20:23;;;;;;;;;;;;;;;;;;5056786;28;19935;-79
2022/08/23 15:22:49;;;;;;;;;;;;;;;;;;5056665;28;20129;-79
2022/08/23 15:25:14;;;;;;;;;;;;;;;;;;5056834;28;20057;-79
2022/08/23 15:27:40;;;;;;;;;;;;;;;;;;5056646;28;20382;-78
2022/08/23 15:30:06;;;;;;;;;;;;;;;;;;5049537;28;19916;-78
2022/08/23 15:32:31;;;;;;;;;;;;;;;;;;5056764;28;19923;-79
2022/08/23 15:34:56;;;;;;;;;;;;;;;;;;5073349;28;19916;-78
2022/08/23 15:37:22;;;;;;;;;;;;;;;;;;5075689;28;19930;-79
2022/08/23 15:39:47;;;;;;;;;;;;;;;;;;5060960;28;20378;-79
2022/08/23 15:42:12;;;;;;;;;;;;;;;;;;5054119;28;19916;-79
2022/08/23 15:44:38;;;;;;;;;;;;;;;;;;5095323;28;19920;-79
2022/08/23 15:47:03;;;;;;;;;;;;;;;;;;5077783;28;19922;-80
2022/08/23 15:49:29;;;;;;;;;;;;;;;;;;5077330;28;19920;-79
2022/08/23 15:51:54;;;;;;;;;;;;;;;;;;5078748;28;20351;-79
2022/08/23 15:54:20;;;;;;;;;;;;;;;;;;5079736;28;19962;-78
2022/08/23 15:56:46;;;;;;;;;;;;;;;;;;5097756;28;19916;-80
2022/08/23 15:59:13;;;;;;;;;;;;;;;;;;5079949;28;19919;-80
2022/08/23 16:01:38;;;;;;;;;;;;;;;;;;5097443;28;20327;-81
2022/08/23 16:04:04;;;;;;;;;;;;;;;;;;5079433;28;19955;-80
2022/08/23 16:06:29;;;;;;;;;;;;;;;;;;5079453;28;19923;-79
2022/08/23 16:08:54;;;;;;;;;;;;;;;;;;5097393;28;19916;-80
2022/08/23 16:11:20;;;;;;;;;;;;;;;;;;5062343;28;19954;-80
2022/08/23 16:13:46;;;;;;;;;;;;;;;;;;5079046;28;19927;-80
2022/08/23 16:16:19;;;;;;;;;;;;;;;;;;5079569;28;19912;-80
2022/08/23 16:18:44;;;;;;;;;;;;;;;;;;5097549;28;19918;-80
2022/08/23 16:21:10;;;;;;;;;;;;;;;;;;5078941;28;19916;-80
2022/08/23 16:23:38;;;;;;;;;;;;;;;;;;5062402;28;19912;-80
2022/08/23 16:26:04;;;;;;;;;;;;;;;;;;5096898;28;20333;-79
2022/08/23 16:28:30;;;;;;;;;;;;;;;;;;5079197;28;19934;-79
2022/08/23 16:30:55;;;;;;;;;;;;;;;;;;5096997;28;19920;-78
2022/08/23 16:33:21;;;;;;;;;;;;;;;;;;5096687;28;19920;-78
2022/08/23 16:35:46;;;;;;;;;;;;;;;;;;5096715;28;20024;-79
2022/08/23 16:38:11;;;;;;;;;;;;;;;;;;5078624;28;19944;-79
2022/08/23 16:40:37;;;;;;;;;;;;;;;;;;5096962;28;19923;-79
2022/08/23 16:43:02;;;;;;;;;;;;;;;;;;5078396;28;20065;-79
2022/08/23 16:45:27;;;;;;;;;;;;;;;;;;5079050;28;19923;-79
2022/08/23 16:47:53;;;;;;;;;;;;;;;;;;5061103;28;19934;-79
2022/08/23 16:50:18;;;;;;;;;;;;;;;;;;5078175;28;20317;-81
2022/08/23 16:52:44;;;;;;;;;;;;;;;;;;5078453;28;20002;-79
2022/08/23 16:55:10;;;;;;;;;;;;;;;;;;5061591;28;19961;-79
2022/08/23 16:57:36;;;;;;;;;;;;;;;;;;5078314;28;19915;-79
2022/08/23 17:00:01;;;;;;;;;;;;;;;;;;5078151;28;19943;-79